Time;durP1;ratioP1;P1;durP2;ratioP2;P2;SDS_P1;SDS_P2;PMS_P1;PMS_P2;Temp;Humidity;BMP_temperature;BMP_pressure;BME280_temperature;BME280_humidity;BME280_pressure;Samples;Min_cycle;Max_cycle;Signal;HPM_P1;HPM_P2
2022/05/02 00:02:18;;;;;;;5.07;4.15;;;;;;;9.65;92.00;97180.59;5064888;28;20064;-69
2022/05/02 00:04:45;;;;;;;6.10;4.00;;;;;;;9.81;92.44;97206.25;5065158;28;20049;-69
2022/05/02 00:07:12;;;;;;;6.70;4.15;;;;;;;9.29;92.17;97099.97;5064601;28;20055;-71
2022/05/02 00:09:39;;;;;;;5.80;4.40;;;;;;;9.86;92.26;97202.38;5063605;28;20684;-72
2022/05/02 00:12:06;;;;;;;5.13;4.10;;;;;;;9.84;92.79;97191.69;5064800;28;20059;-71
2022/05/02 00:14:33;;;;;;;6.22;4.50;;;;;;;9.88;92.54;97206.38;5065010;28;20063;-71
2022/05/02 00:17:00;;;;;;;5.50;4.03;;;;;;;10.02;90.70;97194.84;5063435;28;20057;-70
2022/05/02 00:19:27;;;;;;;5.38;3.63;;;;;;;9.68;91.74;97154.97;5064924;28;20537;-72
2022/05/02 00:21:54;;;;;;;4.72;3.60;;;;;;;9.97;91.36;97187.63;5063254;28;20061;-72
2022/05/02 00:24:20;;;;;;;6.38;4.22;;;;;;;9.94;92.43;97190.31;5063099;28;20064;-71
2022/05/02 00:26:47;;;;;;;5.50;3.70;;;;;;;9.97;92.16;97187.63;5063116;28;20480;-71
2022/05/02 00:29:14;;;;;;;6.47;4.25;;;;;;;9.96;92.50;97202.63;5063018;28;20064;-69
2022/05/02 00:31:40;;;;;;;5.82;4.25;;;;;;;10.07;91.32;97181.53;5062589;28;20052;-71
2022/05/02 00:34:07;;;;;;;5.70;3.95;;;;;;;9.89;90.60;97146.34;5064432;28;20056;-68
2022/05/02 00:36:34;;;;;;;8.85;4.28;;;;;;;10.22;89.24;97183.44;5064735;28;20585;-71
2022/05/02 00:39:01;;;;;;;5.40;3.78;;;;;;;9.61;88.72;97088.44;5064309;28;20063;-71
2022/05/02 00:41:28;;;;;;;5.03;3.88;;;;;;;10.15;90.42;97177.75;5062804;28;20067;-71
2022/05/02 00:43:54;;;;;;;6.30;4.03;;;;;;;10.07;89.73;97186.25;5063012;28;20054;-71
2022/05/02 00:46:26;;;;;;;5.60;3.88;;;;;;;9.85;90.34;97129.66;5063920;28;20129;-69
2022/05/02 00:48:53;;;;;;;4.43;3.45;;;;;;;9.84;90.48;97133.59;5064766;28;20091;-71
2022/05/02 00:51:21;;;;;;;8.85;4.28;;;;;;;10.02;90.44;97172.72;5064513;28;20402;-71
2022/05/02 00:53:51;;;;;;;5.95;3.47;;;;;;;9.89;92.10;97174.00;5064596;28;20114;-68
2022/05/02 00:56:22;;;;;;;9.80;4.05;;;;;;;9.89;92.42;97168.47;5043881;28;20053;-71
2022/05/02 00:58:50;;;;;;;5.80;3.85;;;;;;;9.93;92.25;97174.88;5043790;28;20052;-71
2022/05/02 01:01:17;;;;;;;5.65;4.03;;;;;;;9.84;92.72;97150.19;5043758;28;20716;-71
2022/05/02 01:03:44;;;;;;;7.18;3.78;;;;;;;10.11;91.85;97185.19;5044404;28;20052;-70
2022/05/02 01:08:57;;;;;;;4.97;3.38;;;;;;;9.79;91.56;97147.72;5044092;28;20045;-70
2022/05/02 01:11:24;;;;;;;6.80;4.10;;;;;;;9.24;91.15;97029.19;5043689;28;20057;-69
2022/05/02 01:13:51;;;;;;;7.00;4.10;;;;;;;10.02;91.68;97151.34;5043766;28;20056;-71
2022/05/02 01:16:24;;;;;;;4.43;3.65;;;;;;;10.10;90.66;97166.19;5043730;28;20067;-71
2022/05/02 01:18:53;;;;;;;5.80;4.43;;;;;;;10.11;91.02;97168.59;5044031;28;20056;-71
2022/05/02 01:21:29;;;;;;;5.57;3.55;;;;;;;10.01;91.66;97166.38;5043980;28;20516;-69
2022/05/02 01:23:59;;;;;;;6.35;3.85;;;;;;;9.67;91.01;97122.97;5044532;28;20053;-71
2022/05/02 01:26:25;;;;;;;8.60;4.00;;;;;;;9.12;91.52;97051.41;5043705;28;20053;-71
2022/05/02 01:28:54;;;;;;;9.75;3.88;;;;;;;9.88;92.54;97162.13;5043605;28;20110;-71
2022/05/02 01:31:21;;;;;;;6.13;4.00;;;;;;;9.90;93.94;97176.41;5043683;28;20052;-70
2022/05/02 01:33:49;;;;;;;5.05;3.40;;;;;;;9.95;93.92;97162.28;5043893;28;20056;-70
2022/05/02 01:36:18;;;;;;;8.65;3.95;;;;;;;9.55;92.47;97094.63;5044127;28;20274;-71
2022/05/02 01:38:45;;;;;;;5.43;4.18;;;;;;;9.76;93.67;97131.03;5041807;28;20510;-71
2022/05/02 01:41:12;;;;;;;7.00;4.25;;;;;;;10.04;92.94;97146.25;5043520;28;20067;-71
2022/05/02 01:43:39;;;;;;;4.97;3.80;;;;;;;9.66;92.82;97099.22;5042323;28;20056;-72
2022/05/02 01:46:09;;;;;;;6.05;4.25;;;;;;;10.07;93.16;97148.31;5043447;28;20516;-70
2022/05/02 01:48:35;;;;;;;6.82;4.30;;;;;;;9.99;93.37;97129.94;5043448;28;20060;-70
2022/05/02 01:51:03;;;;;;;8.52;5.28;;;;;;;10.15;93.30;97136.22;5042464;28;20053;-70
2022/05/02 01:53:30;;;;;;;9.00;5.90;;;;;;;10.20;92.50;97135.94;5043819;28;20499;-70
2022/05/02 01:55:57;;;;;;;8.32;5.72;;;;;;;9.86;93.22;97092.53;5060410;28;20063;-71
2022/05/02 01:58:23;;;;;;;8.15;5.38;;;;;;;9.67;94.23;97059.34;5063768;28;20052;-71
2022/05/02 02:00:50;;;;;;;7.88;5.18;;;;;;;10.09;94.41;97123.84;5062137;28;20057;-69
2022/05/02 02:03:17;;;;;;;9.13;5.35;;;;;;;10.15;94.39;97122.41;5063850;28;20066;-68
2022/05/02 02:05:50;;;;;;;5.80;4.65;;;;;;;10.24;92.27;97125.72;5062213;28;20079;-71
2022/05/02 02:08:25;;;;;;;4.88;4.38;;;;;;;10.18;91.77;97121.66;5062139;28;20060;-71
2022/05/02 02:10:53;;;;;;;7.90;4.65;;;;;;;10.14;92.20;97115.28;5061863;28;20117;-71
2022/05/02 02:13:20;;;;;;;6.50;4.50;;;;;;;9.89;92.86;97079.94;5063470;28;20805;-71
2022/05/02 02:15:47;;;;;;;6.55;4.68;;;;;;;10.04;93.18;97115.81;5063478;28;20056;-71
2022/05/02 02:18:14;;;;;;;7.88;4.57;;;;;;;10.03;93.49;97118.94;5063296;28;20083;-71
2022/05/02 02:20:53;;;;;;;8.80;5.13;;;;;;;9.95;94.42;97118.00;5061784;28;20182;-69
2022/05/02 02:23:21;;;;;;;8.48;5.32;;;;;;;9.98;94.48;97111.75;5061767;28;20075;-71
2022/05/02 02:25:48;;;;;;;5.80;4.90;;;;;;;10.02;93.36;97106.28;5062832;28;20067;-71
2022/05/02 02:28:15;;;;;;;8.80;5.32;;;;;;;9.94;94.05;97115.63;5062752;28;20048;-70
2022/05/02 02:30:44;;;;;;;6.75;4.72;;;;;;;9.82;95.20;97102.72;5063240;28;20517;-72
2022/05/02 02:33:09;;;;;;;8.55;5.00;;;;;;;9.75;95.57;97171.75;5061611;28;20044;-71
2022/05/02 02:35:36;;;;;;;9.05;5.55;;;;;;;9.78;93.82;97107.38;5063171;28;20059;-70
2022/05/02 02:38:03;;;;;;;6.43;4.63;;;;;;;9.53;94.23;97083.91;5062512;28;20052;-69
2022/05/02 02:40:31;;;;;;;8.55;4.50;;;;;;;9.58;95.09;97091.16;5065153;28;20067;-70
2022/05/02 02:42:57;;;;;;;4.90;3.90;;;;;;;9.28;96.70;97071.50;5066581;28;20060;-68
2022/05/02 02:45:24;;;;;;;6.85;4.60;;;;;;;8.76;98.71;97015.84;5066919;28;20060;-71
2022/05/02 02:47:51;;;;;;;8.48;5.32;;;;;;;8.66;99.38;97008.13;5065249;28;20045;-69
2022/05/02 02:50:18;;;;;;;7.43;5.38;;;;;;;8.75;100.00;97028.06;5064976;28;20048;-68
2022/05/02 02:52:44;;;;;;;8.60;5.10;;;;;;;8.32;99.94;96939.88;5065025;28;20053;-70
2022/05/02 02:55:11;;;;;;;7.38;4.65;;;;;;;9.11;99.27;97071.91;5066375;28;20066;-70
2022/05/02 02:57:38;;;;;;;6.80;4.57;;;;;;;9.22;99.16;97075.72;5066667;28;20053;-71
2022/05/02 03:00:07;;;;;;;7.93;4.68;;;;;;;9.14;98.56;97085.81;5064896;28;20074;-71
2022/05/02 03:02:41;;;;;;;7.05;4.80;;;;;;;9.04;98.21;97083.59;5066243;28;20105;-69
2022/05/02 03:07:54;;;;;;;8.35;4.82;;;;;;;8.99;97.43;97074.81;5066109;28;20052;-69
2022/05/02 03:10:20;;;;;;;8.30;4.70;;;;;;;8.87;99.00;97067.41;5066038;28;20071;-70
2022/05/02 03:12:47;;;;;;;7.20;3.97;;;;;;;8.81;99.49;97085.44;5066020;28;20141;-70
2022/05/02 03:15:14;;;;;;;7.88;4.40;;;;;;;8.75;100.00;97086.06;5064517;28;20711;-70
2022/05/02 03:17:40;;;;;;;6.72;4.18;;;;;;;8.73;100.00;97085.59;5065908;28;20052;-71
2022/05/02 03:20:08;;;;;;;7.15;4.18;;;;;;;8.55;100.00;97087.13;5066379;28;20049;-70
2022/05/02 03:22:34;;;;;;;6.55;3.90;;;;;;;8.08;100.00;97009.81;5066238;28;20059;-69
2022/05/02 03:25:01;;;;;;;7.38;4.20;;;;;;;8.70;99.19;97092.66;5065818;28;20049;-71
2022/05/02 03:27:28;;;;;;;5.32;3.78;;;;;;;8.71;97.50;97097.00;5065635;28;20056;-70
2022/05/02 03:29:54;;;;;;;7.13;3.80;;;;;;;8.52;96.71;97098.91;5065838;28;20056;-70
2022/05/02 03:32:21;;;;;;;7.75;4.13;;;;;;;8.48;97.70;97098.00;5063364;28;20063;-69
2022/05/02 03:34:48;;;;;;;5.18;3.95;;;;;;;8.46;98.52;97101.09;5065393;28;20450;-69
2022/05/02 03:37:16;;;;;;;6.97;4.53;;;;;;;8.44;98.39;97099.88;5064952;28;20045;-69
2022/05/02 03:39:42;;;;;;;7.93;4.32;;;;;;;8.48;98.65;97115.34;5065439;28;20044;-69
2022/05/02 03:42:09;;;;;;;10.85;4.45;;;;;;;7.90;98.59;97022.34;5065353;28;20056;-69
2022/05/02 03:44:35;;;;;;;9.57;5.07;;;;;;;8.53;97.65;97101.31;5065694;28;20552;-68
2022/05/02 03:47:02;;;;;;;15.57;5.32;;;;;;;8.51;97.75;97109.13;5065036;28;20063;-70
2022/05/02 03:49:29;;;;;;;9.55;4.85;;;;;;;8.32;98.58;97086.94;5063593;28;20060;-70
2022/05/02 03:51:56;;;;;;;5.15;4.03;;;;;;;8.17;99.85;97062.06;5064562;28;20045;-69
2022/05/02 03:54:23;;;;;;;6.38;3.97;;;;;;;8.26;98.80;97068.22;5065049;28;20326;-71
2022/05/02 03:56:49;;;;;;;8.82;4.78;;;;;;;8.27;99.37;97061.56;5065089;28;20052;-71
2022/05/02 03:59:16;;;;;;;7.93;4.57;;;;;;;8.65;98.19;97111.44;5063861;28;20065;-69
2022/05/02 04:01:43;;;;;;;5.65;3.97;;;;;;;8.18;97.64;97034.13;5064588;28;20052;-71
2022/05/02 04:04:10;;;;;;;5.15;4.10;;;;;;;8.81;96.88;97107.53;5065003;28;20054;-71
2022/05/02 04:06:37;;;;;;;7.80;5.07;;;;;;;8.89;96.85;97105.72;5063375;28;20052;-70
2022/05/02 04:09:04;;;;;;;8.13;5.32;;;;;;;8.85;96.29;97080.00;5065093;28;20499;-70
2022/05/02 04:11:31;;;;;;;9.00;5.93;;;;;;;8.90;94.94;97049.31;5064826;28;20056;-71
2022/05/02 04:13:58;;;;;;;9.57;6.15;;;;;;;8.98;94.01;97034.50;5063477;28;20134;-71
2022/05/02 04:16:25;;;;;;;9.98;5.90;;;;;;;9.20;94.17;97061.47;5064765;28;20124;-70
2022/05/02 04:18:52;;;;;;;12.15;5.60;;;;;;;9.54;94.65;97099.34;5063352;28;20052;-71
2022/05/02 04:21:18;;;;;;;8.73;5.90;;;;;;;9.60;93.08;97095.13;5064595;28;20052;-71
2022/05/02 04:23:45;;;;;;;10.88;6.22;;;;;;;9.62;93.66;97106.66;5063528;28;20228;-71
2022/05/02 04:26:12;;;;;;;13.85;6.78;;;;;;;9.79;93.34;97097.09;5064050;28;20091;-70
2022/05/02 04:28:39;;;;;;;8.23;6.70;;;;;;;9.87;93.91;97099.66;5064506;28;20177;-70
2022/05/02 04:31:06;;;;;;;12.05;6.80;;;;;;;9.93;93.89;97075.25;5064505;28;20694;-71
2022/05/02 04:33:33;;;;;;;12.13;7.85;;;;;;;10.10;93.04;97081.16;5064634;28;20095;-71
2022/05/02 04:36:00;;;;;;;11.68;7.68;;;;;;;10.17;92.35;97086.84;5063567;28;20491;-71
2022/05/02 04:38:28;;;;;;;9.88;6.57;;;;;;;10.26;92.39;97081.88;5064086;28;20049;-70
2022/05/02 04:40:57;;;;;;;8.38;6.35;;;;;;;10.04;92.36;97021.72;5062665;28;20052;-70
2022/05/02 04:43:24;;;;;;;11.80;5.95;;;;;;;10.57;92.19;97078.88;5064097;28;20083;-71
2022/05/02 04:45:51;;;;;;;10.18;6.00;;;;;;;10.68;90.11;97063.22;5062222;28;20135;-70
2022/05/02 04:48:19;;;;;;;8.25;6.05;;;;;;;10.78;90.22;97083.97;5064299;28;20135;-68
2022/05/02 04:50:46;;;;;;;8.40;5.60;;;;;;;10.75;89.97;97045.16;5062794;28;20115;-72
2022/05/02 04:53:13;;;;;;;8.50;5.93;;;;;;;11.06;89.38;97067.00;5063983;28;20143;-70
2022/05/02 04:55:40;;;;;;;6.90;5.47;;;;;;;11.20;88.34;97067.22;5063818;28;20531;-72
2022/05/02 04:58:07;;;;;;;7.47;5.45;;;;;;;11.37;87.76;97077.78;5063795;28;20135;-70
2022/05/02 05:00:34;;;;;;;7.38;5.68;;;;;;;11.51;86.16;97072.41;5062368;28;20079;-72
2022/05/02 05:03:03;;;;;;;8.48;5.45;;;;;;;11.44;85.22;97047.38;5062170;28;20143;-70
2022/05/02 05:05:31;;;;;;;8.63;5.57;;;;;;;11.72;84.29;97061.63;5062184;28;20167;-72
2022/05/02 05:07:58;;;;;;;8.88;5.63;;;;;;;11.86;84.15;97075.69;5063386;28;20057;-72
2022/05/02 05:10:27;;;;;;;6.38;5.40;;;;;;;11.95;83.84;97065.91;5062270;28;20109;-72
2022/05/02 05:13:04;;;;;;;7.20;5.35;;;;;;;12.01;82.51;97066.38;5062320;28;20060;-73
2022/05/02 05:18:59;;;;;;;13.55;7.55;;;;;;;12.27;81.00;97063.47;5063767;28;20044;-71
2022/05/02 05:21:37;;;;;;;12.77;7.38;;;;;;;12.41;80.23;97073.97;5063656;28;20067;-69
2022/05/02 05:24:42;;;;;;;11.00;7.47;;;;;;;12.57;79.68;97068.94;5063656;28;20056;-70
2022/05/02 05:27:46;;;;;;;11.45;7.50;;;;;;;12.86;78.73;97066.03;5063241;28;20057;-71
2022/05/02 05:30:17;;;;;;;12.00;7.65;;;;;;;12.91;77.82;97046.25;5063841;28;20055;-70
2022/05/02 05:32:59;;;;;;;12.20;8.80;;;;;;;13.18;75.86;97066.31;5063737;28;20427;-69
2022/05/02 05:36:01;;;;;;;14.73;8.55;;;;;;;13.22;75.77;97072.69;5063861;28;20059;-72
2022/05/02 05:38:39;;;;;;;11.95;7.18;;;;;;;13.31;74.54;97068.41;5060662;28;20447;-72
2022/05/02 05:41:23;;;;;;;9.23;6.93;;;;;;;13.53;73.88;97070.13;5062004;28;20151;-69
2022/05/02 05:43:53;;;;;;;7.75;5.93;;;;;;;13.67;72.28;97072.97;5062468;28;20052;-72
2022/05/02 05:47:12;;;;;;;6.80;5.35;;;;;;;13.85;71.24;97072.28;5061431;28;20428;-72
2022/05/02 05:49:59;;;;;;;7.60;5.97;;;;;;;14.04;68.75;97063.59;5061091;28;20048;-72
2022/05/02 05:52:45;;;;;;;7.85;5.75;;;;;;;14.14;70.46;97068.41;5061609;28;20052;-71
2022/05/02 05:55:22;;;;;;;8.30;5.63;;;;;;;14.23;69.07;97071.63;5061240;28;20049;-72
2022/05/02 05:57:58;;;;;;;6.97;5.38;;;;;;;13.87;71.28;97065.13;5063185;28;20060;-73
2022/05/02 06:00:30;;;;;;;5.75;4.88;;;;;;;13.85;70.02;97073.06;5062821;28;20538;-72
2022/05/02 06:03:06;;;;;;;10.65;4.80;;;;;;;13.60;72.22;97077.72;5061753;28;20051;-71
2022/05/02 06:05:40;;;;;;;6.38;5.63;;;;;;;13.98;71.78;97051.25;5063191;28;20079;-73
2022/05/02 06:08:20;;;;;;;9.98;5.30;;;;;;;14.37;70.02;97069.72;5062902;28;20063;-71
2022/05/02 06:10:50;;;;;;;8.40;4.90;;;;;;;13.49;68.01;96935.75;5063463;28;20048;-74
2022/05/02 06:13:18;;;;;;;6.38;5.60;;;;;;;14.54;68.18;97087.69;5061510;28;20060;-71
2022/05/02 06:18:57;;;;;;;5.93;4.82;;;;;;;14.37;65.76;97077.28;5064535;28;20056;-71
2022/05/02 06:21:24;;;;;;;5.78;4.57;;;;;;;13.97;65.43;97013.47;5058671;28;20067;-71
2022/05/02 06:23:51;;;;;;;6.20;4.47;;;;;;;13.87;66.02;97025.34;5053449;28;20153;-70
2022/05/02 06:26:22;;;;;;;5.57;4.63;;;;;;;14.58;65.78;97039.09;5061193;28;20053;-68
2022/05/02 06:28:50;;;;;;;6.35;4.45;;;;;;;15.12;63.34;97074.19;5066963;28;20538;-58
2022/05/02 06:31:31;;;;;;;5.47;4.07;;;;;;;15.28;61.12;97071.78;5046312;28;20597;-61
2022/05/02 06:34:01;;;;;;;6.95;4.40;;;;;;;15.47;61.02;97073.38;5049666;28;20058;-62
2022/05/02 06:36:59;;;;;;;8.50;4.68;;;;;;;15.50;58.97;97067.81;5056015;28;20060;-68
2022/05/02 06:39:32;;;;;;;6.63;4.07;;;;;;;15.58;56.37;97074.97;5065497;28;20060;-69
2022/05/02 06:42:29;;;;;;;5.90;4.45;;;;;;;15.16;60.40;97070.19;5057600;28;20052;-63
2022/05/02 06:45:08;;;;;;;4.43;3.20;;;;;;;15.63;55.52;97068.97;5058791;28;20040;-61
2022/05/02 06:48:09;;;;;;;7.70;4.28;;;;;;;15.20;61.51;97070.19;5063394;28;20052;-60
2022/05/02 06:50:39;;;;;;;8.68;4.30;;;;;;;15.38;57.67;97070.19;5037686;28;20060;-62
2022/05/02 06:53:57;;;;;;;7.05;4.70;;;;;;;15.52;57.07;97059.84;5059381;28;20053;-62
2022/05/02 06:56:36;;;;;;;6.70;4.55;;;;;;;16.02;55.26;97060.47;5051977;28;20064;-56
2022/05/02 06:59:05;;;;;;;5.40;4.90;;;;;;;16.09;54.78;97047.25;5055917;28;20044;-61
2022/05/02 07:02:12;;;;;;;6.47;4.97;;;;;;;16.24;54.04;97051.59;5056665;28;20067;-63
2022/05/02 07:04:44;;;;;;;11.48;6.70;;;;;;;15.92;54.26;97011.81;5051632;28;20044;-61
2022/05/02 07:07:20;;;;;;;5.77;4.00;;;;;;;16.43;53.58;97048.28;5056597;28;20056;-67
2022/05/02 07:10:00;;;;;;;4.90;4.38;;;;;;;16.47;53.85;97046.28;5054264;28;20497;-61
2022/05/02 07:12:30;;;;;;;7.73;4.60;;;;;;;16.16;53.73;97010.91;5062669;28;20056;-59
2022/05/02 07:15:09;;;;;;;7.72;4.47;;;;;;;15.98;54.78;97035.31;5058548;28;20053;-65
2022/05/02 07:17:41;;;;;;;4.47;4.05;;;;;;;16.25;54.28;97042.00;5045319;28;20049;-64
2022/05/02 07:20:35;;;;;;;8.52;3.85;;;;;;;16.12;53.77;97032.47;5057464;28;20053;-66
2022/05/02 07:23:20;;;;;;;4.50;4.10;;;;;;;15.77;56.35;97029.03;5045210;28;20049;-65
2022/05/02 07:25:53;;;;;;;5.32;4.40;;;;;;;16.25;54.34;97036.41;5057646;28;20067;-64
2022/05/02 07:29:01;;;;;;;4.82;4.22;;;;;;;16.09;56.15;97036.06;5065465;28;20060;-62
2022/05/02 07:31:29;;;;;;;5.18;4.47;;;;;;;16.44;52.80;96968.81;5042944;28;20502;-63
2022/05/02 07:33:55;;;;;;;9.90;4.00;;;;;;;16.94;52.99;97035.56;5045194;28;20053;-61
2022/05/02 07:36:25;;;;;;;6.25;4.85;;;;;;;16.80;53.23;97036.50;5045173;28;20442;-60
2022/05/02 07:38:58;;;;;;;5.72;4.20;;;;;;;16.24;53.96;97034.81;5048275;28;20053;-63
2022/05/02 07:41:26;;;;;;;4.20;3.78;;;;;;;15.64;54.19;97003.53;5048603;28;20063;-60
2022/05/02 07:44:01;;;;;;;6.68;4.18;;;;;;;16.04;52.57;96975.03;5054315;28;20057;-60
2022/05/02 07:46:35;;;;;;;4.30;3.67;;;;;;;15.92;53.33;96995.03;5065045;28;20056;-65
2022/05/02 07:49:04;;;;;;;6.72;4.40;;;;;;;16.60;53.20;97019.44;5045422;28;20353;-63
2022/05/02 07:51:32;;;;;;;4.68;4.25;;;;;;;16.73;52.38;97004.94;5053045;28;20532;-61
2022/05/02 07:54:00;;;;;;;5.25;3.90;;;;;;;17.31;51.01;97016.06;5051056;28;20053;-66
2022/05/02 07:56:31;;;;;;;5.30;4.28;;;;;;;17.16;50.34;96983.81;5060302;28;20154;-65
2022/05/02 07:58:59;;;;;;;4.20;3.78;;;;;;;16.64;50.31;96888.75;5058545;28;20414;-60
2022/05/02 08:01:26;;;;;;;6.93;4.38;;;;;;;17.50;49.82;97004.28;5048970;28;20059;-65
2022/05/02 08:03:53;;;;;;;5.15;4.65;;;;;;;17.41;50.01;96989.94;5061806;28;20067;-63
2022/05/02 08:06:48;;;;;;;6.22;4.22;;;;;;;17.64;50.12;97004.91;5051376;28;20114;-66
2022/05/02 08:09:26;;;;;;;4.78;4.13;;;;;;;17.61;50.91;97004.94;5056432;28;20128;-66
2022/05/02 08:12:00;;;;;;;5.50;4.45;;;;;;;16.78;51.15;96895.41;5053527;28;20064;-65
2022/05/02 08:14:57;;;;;;;5.00;4.43;;;;;;;17.53;51.32;97000.66;5053345;28;20439;-61
2022/05/02 08:17:42;;;;;;;5.00;4.28;;;;;;;17.54;50.43;96999.44;5044551;28;20076;-64
2022/05/02 08:20:16;;;;;;;6.18;4.80;;;;;;;17.46;51.12;96997.91;5058580;28;20055;-65
2022/05/02 08:28:27;;;;;;;4.57;4.18;;;;;;;18.28;48.36;96993.72;5051518;28;20076;-60
2022/05/02 08:31:11;;;;;;;4.72;4.20;;;;;;;18.36;48.41;96983.97;5055585;28;20048;-63
2022/05/02 08:33:50;;;;;;;5.32;4.45;;;;;;;18.20;49.12;96968.97;5044058;28;20057;-66
2022/05/02 08:36:50;;;;;;;5.95;4.40;;;;;;;17.95;49.27;96984.16;5057787;28;20053;-61
2022/05/02 08:39:24;;;;;;;5.88;4.60;;;;;;;17.80;49.42;96895.84;5062199;28;20068;-60
2022/05/02 08:42:33;;;;;;;7.20;4.15;;;;;;;18.61;48.37;96928.31;5063983;28;20059;-61
2022/05/02 08:45:33;;;;;;;6.57;4.75;;;;;;;18.59;47.33;96953.19;5063480;28;20052;-64
2022/05/02 08:48:15;;;;;;;4.70;4.20;;;;;;;18.85;47.35;96949.56;5062096;28;20060;-65
2022/05/02 08:51:09;;;;;;;4.60;4.00;;;;;;;19.43;45.59;96934.88;5062378;28;20451;-60
2022/05/02 08:53:51;;;;;;;4.32;3.97;;;;;;;19.23;45.88;96936.84;5063754;28;20056;-64
2022/05/02 08:56:29;;;;;;;6.30;4.05;;;;;;;19.03;46.69;96927.56;5063734;28;20462;-61
2022/05/02 08:58:59;;;;;;;6.78;4.70;;;;;;;18.74;47.25;96937.72;5064188;28;20104;-60
2022/05/02 09:01:48;;;;;;;6.80;5.35;;;;;;;18.66;47.70;96939.06;5063103;28;21094;-66
2022/05/02 09:04:31;;;;;;;6.60;5.35;;;;;;;18.52;48.30;96930.88;5062448;28;20049;-61
2022/05/02 09:07:22;;;;;;;4.72;4.25;;;;;;;18.58;47.70;96928.38;5063078;28;20056;-67
2022/05/02 09:09:56;;;;;;;4.55;4.15;;;;;;;18.73;47.45;96930.50;5054495;28;20052;-65
2022/05/02 09:12:47;;;;;;;5.13;4.13;;;;;;;18.75;47.17;96941.31;5063388;28;20079;-61
2022/05/02 09:15:53;;;;;;;6.20;4.53;;;;;;;18.68;47.36;96949.84;5058024;28;20409;-65
2022/05/02 09:18:46;;;;;;;13.80;8.85;;;;;;;18.26;48.38;96933.66;5063784;28;20063;-64
2022/05/02 09:21:55;;;;;;;14.02;8.05;;;;;;;18.16;49.13;96946.63;5062416;28;20582;-66
2022/05/02 09:24:36;;;;;;;28.63;14.02;;;;;;;18.00;49.15;96943.63;5062209;28;20052;-66
2022/05/02 09:27:21;;;;;;;13.07;8.23;;;;;;;17.95;49.93;96946.91;5063218;28;20063;-65
2022/05/02 09:30:14;;;;;;;25.08;11.65;;;;;;;18.14;49.60;96949.03;5063905;28;20059;-65
2022/05/02 09:32:50;;;;;;;33.13;14.35;;;;;;;18.15;49.76;96942.22;5061741;28;20059;-66
2022/05/02 09:35:30;;;;;;;12.32;6.97;;;;;;;18.04;50.26;96941.56;5063913;28;20060;-66
2022/05/02 09:37:58;;;;;;;8.45;5.68;;;;;;;17.94;49.98;96950.94;5063436;28;20061;-66
2022/05/02 09:40:36;;;;;;;8.95;6.60;;;;;;;17.97;49.53;96950.09;5063792;28;20059;-65
2022/05/02 09:43:17;;;;;;;7.88;5.85;;;;;;;18.23;49.58;96918.47;5063313;28;20055;-65
2022/05/02 09:51:31;;;;;;;7.30;5.03;;;;;;;18.25;48.01;96927.25;5067338;28;20495;-66
2022/05/02 09:54:06;;;;;;;14.35;7.00;;;;;;;18.22;47.39;96939.31;5067189;28;20056;-65
2022/05/02 09:56:46;;;;;;;6.88;4.68;;;;;;;18.11;46.83;96927.47;5067238;28;20435;-65
2022/05/02 09:59:26;;;;;;;4.90;4.40;;;;;;;18.37;46.64;96932.25;5067478;28;20064;-65
2022/05/02 10:02:28;;;;;;;6.72;5.07;;;;;;;18.30;46.93;96917.56;5065596;28;20060;-67
2022/05/02 10:05:21;;;;;;;6.00;4.72;;;;;;;18.48;45.75;96935.72;5065514;28;20489;-66
2022/05/02 10:08:04;;;;;;;5.10;4.60;;;;;;;18.13;46.79;96885.75;5066470;28;20052;-65
2022/05/02 10:10:42;;;;;;;8.90;5.43;;;;;;;18.34;47.00;96930.31;5065722;28;20070;-65
2022/05/02 10:13:24;;;;;;;5.13;4.65;;;;;;;18.33;46.60;96925.94;5066924;28;20076;-66
2022/05/02 10:16:26;;;;;;;4.78;4.35;;;;;;;18.58;45.68;96917.94;5066786;28;20059;-67
2022/05/02 10:19:12;;;;;;;4.65;3.90;;;;;;;18.83;45.72;96917.50;5067028;28;20052;-67
2022/05/02 10:21:59;;;;;;;5.55;4.65;;;;;;;19.10;45.27;96916.22;5067034;28;20511;-68
2022/05/02 10:24:38;;;;;;;8.43;5.85;;;;;;;19.00;45.63;96903.16;5065539;28;20503;-66
2022/05/02 10:27:25;;;;;;;5.47;4.82;;;;;;;18.96;45.23;96910.88;5065217;28;20067;-64
2022/05/02 10:30:12;;;;;;;11.57;7.63;;;;;;;18.95;45.66;96908.50;5066917;28;20059;-66
2022/05/02 10:32:52;;;;;;;9.05;6.28;;;;;;;19.07;46.09;96911.47;5065466;28;20048;-66
2022/05/02 10:35:21;;;;;;;6.28;4.43;;;;;;;18.63;45.80;96819.25;5067079;28;20063;-67
2022/05/02 10:38:00;;;;;;;4.78;4.38;;;;;;;19.17;43.97;96910.47;5066422;28;20048;-66
2022/05/02 10:40:45;;;;;;;6.63;5.13;;;;;;;19.12;43.99;96913.00;5066608;28;20048;-67
2022/05/02 10:43:23;;;;;;;5.53;3.80;;;;;;;18.52;44.00;96863.53;5066135;28;20063;-65
2022/05/02 10:45:50;;;;;;;4.72;4.07;;;;;;;18.33;44.78;96855.00;5066391;28;20067;-65
2022/05/02 10:48:17;;;;;;;5.07;4.63;;;;;;;18.45;45.47;96911.34;5065833;28;20059;-66
2022/05/02 10:50:53;;;;;;;5.80;4.63;;;;;;;18.56;45.84;96899.97;5066054;28;20045;-66
2022/05/02 10:53:22;;;;;;;6.90;4.75;;;;;;;18.71;45.95;96892.88;5064779;28;20090;-66
2022/05/02 10:56:05;;;;;;;6.60;4.38;;;;;;;18.81;45.71;96884.25;5065345;28;20082;-66
2022/05/02 10:58:34;;;;;;;6.03;4.20;;;;;;;18.72;45.16;96892.44;5044248;28;20073;-66
2022/05/02 11:01:07;;;;;;;4.47;4.07;;;;;;;18.77;46.07;96882.75;5045050;28;20049;-67
2022/05/02 11:03:52;;;;;;;4.60;4.30;;;;;;;19.01;45.95;96876.69;5046013;28;20087;-67
2022/05/02 11:06:33;;;;;;;5.43;4.45;;;;;;;19.16;45.44;96875.19;5045898;28;20052;-67
2022/05/02 11:09:04;;;;;;;5.57;4.82;;;;;;;18.96;45.21;96870.75;5045728;28;20084;-65
2022/05/02 11:11:46;;;;;;;9.70;5.53;;;;;;;18.85;45.33;96873.78;5045617;28;20053;-66
2022/05/02 11:14:13;;;;;;;6.63;4.18;;;;;;;19.22;43.92;96862.22;5046174;28;20432;-67
2022/05/02 11:16:54;;;;;;;4.35;3.85;;;;;;;19.65;42.81;96852.97;5045594;28;20049;-67
2022/05/02 11:22:27;;;;;;;4.05;3.63;;;;;;;19.49;42.58;96860.09;5045263;28;20055;-66
2022/05/02 11:25:06;;;;;;;5.60;4.28;;;;;;;19.66;41.71;96827.25;5046243;28;20060;-67
2022/05/02 11:27:58;;;;;;;4.32;3.95;;;;;;;20.03;41.25;96859.75;5044062;28;20052;-66
2022/05/02 11:30:29;;;;;;;5.55;4.43;;;;;;;19.41;42.04;96780.00;5045563;28;20045;-65
2022/05/02 11:33:06;;;;;;;5.78;4.63;;;;;;;19.45;40.63;96813.63;5044273;28;20060;-68
2022/05/02 11:35:34;;;;;;;4.03;3.72;;;;;;;20.14;40.76;96857.50;5045465;28;20072;-67
2022/05/02 11:38:36;;;;;;;7.53;3.95;;;;;;;20.21;40.41;96843.25;5045026;28;20053;-67
2022/05/02 11:41:19;;;;;;;6.47;4.43;;;;;;;20.14;40.50;96832.19;5044038;28;20454;-66
2022/05/02 11:43:47;;;;;;;8.32;4.88;;;;;;;20.40;39.44;96840.38;5045477;28;20085;-67
2022/05/02 11:46:26;;;;;;;5.63;4.47;;;;;;;20.14;40.56;96798.44;5045096;28;20056;-67
2022/05/02 11:49:08;;;;;;;5.47;4.68;;;;;;;20.77;40.72;96824.97;5045120;28;20079;-66
2022/05/02 11:52:01;;;;;;;10.60;4.30;;;;;;;21.28;38.76;96821.16;5045018;28;20061;-67
2022/05/02 11:54:28;;;;;;;9.93;6.55;;;;;;;21.39;37.07;96826.47;5045248;28;20060;-66
2022/05/02 11:57:03;;;;;;;11.90;8.25;;;;;;;21.53;37.89;96818.41;5052551;28;20056;-66
2022/05/02 11:59:42;;;;;;;9.90;7.10;;;;;;;21.25;36.40;96805.13;5065137;28;20065;-66
2022/05/02 12:02:24;;;;;;;4.90;4.00;;;;;;;20.65;36.53;96789.06;5065047;28;20106;-66
2022/05/02 12:04:52;;;;;;;4.85;3.65;;;;;;;20.41;37.46;96815.81;5063983;28;20131;-66
2022/05/02 12:07:29;;;;;;;4.93;4.50;;;;;;;19.99;38.39;96791.53;5063406;28;20075;-66
2022/05/02 12:10:06;;;;;;;5.55;5.05;;;;;;;19.83;39.50;96812.00;5064522;28;20059;-66
2022/05/02 12:12:33;;;;;;;5.03;4.20;;;;;;;19.53;40.26;96776.53;5063579;28;20093;-66
2022/05/02 12:15:01;;;;;;;9.50;5.97;;;;;;;19.45;40.33;96786.34;5065349;28;20052;-65
2022/05/02 12:17:28;;;;;;;34.70;16.00;;;;;;;19.48;40.26;96791.09;5063458;28;20048;-66
2022/05/02 12:19:55;;;;;;;11.82;6.70;;;;;;;19.05;40.30;96755.88;5063397;28;20135;-66
2022/05/02 12:22:26;;;;;;;5.57;4.10;;;;;;;19.57;39.64;96803.75;5063077;28;20519;-66
2022/05/02 12:25:02;;;;;;;5.88;4.57;;;;;;;19.84;39.73;96801.53;5064866;28;20109;-67
2022/05/02 12:27:31;;;;;;;6.65;4.85;;;;;;;19.53;39.59;96765.28;5064317;28;20522;-66
2022/05/02 12:30:01;;;;;;;6.35;4.32;;;;;;;19.58;40.17;96795.66;5064594;28;20139;-66
2022/05/02 12:32:33;;;;;;;4.97;3.83;;;;;;;19.44;40.25;96800.84;5064641;28;20461;-66
2022/05/02 12:35:04;;;;;;;5.30;4.05;;;;;;;19.48;40.38;96805.16;5062793;28;20055;-66